sensor_id;sensor_type;location;lat;lon;timestamp;temperature;humidity
44513;DHT22;30219;50.588;9.504;2022-12-05T00:02:19;2.10;99.90
44513;DHT22;30219;50.588;9.504;2022-12-05T00:04:45;2.10;99.90
44513;DHT22;30219;50.588;9.504;2022-12-05T00:07:11;2.10;99.90
44513;DHT22;30219;50.588;9.504;2022-12-05T00:09:36;2.10;99.90
44513;DHT22;30219;50.588;9.504;2022-12-05T00:12:02;2.00;99.90
44513;DHT22;30219;50.588;9.504;2022-12-05T00:14:28;2.00;99.90
44513;DHT22;30219;50.588;9.504;2022-12-05T00:16:53;2.10;99.90
44513;DHT22;30219;50.588;9.504;2022-12-05T00:19:19;2.10;99.90
44513;DHT22;30219;50.588;9.504;2022-12-05T00:21:44;2.00;99.90
44513;DHT22;30219;50.588;9.504;2022-12-05T00:24:12;2.00;99.90
44513;DHT22;30219;50.588;9.504;2022-12-05T00:26:38;2.00;99.90
44513;DHT22;30219;50.588;9.504;2022-12-05T00:29:04;2.00;99.90
44513;DHT22;30219;50.588;9.504;2022-12-05T00:31:29;1.90;99.90
44513;DHT22;30219;50.588;9.504;2022-12-05T00:33:58;2.00;99.90
44513;DHT22;30219;50.588;9.504;2022-12-05T00:36:26;2.00;99.90
44513;DHT22;30219;50.588;9.504;2022-12-05T00:38:53;2.00;99.90
44513;DHT22;30219;50.588;9.504;2022-12-05T00:41:25;2.00;99.90
44513;DHT22;30219;50.588;9.504;2022-12-05T00:43:52;2.00;99.90
44513;DHT22;30219;50.588;9.504;2022-12-05T00:46:22;2.00;99.90
44513;DHT22;30219;50.588;9.504;2022-12-05T00:48:49;2.00;99.90
44513;DHT22;30219;50.588;9.504;2022-12-05T00:51:19;2.00;99.90
44513;DHT22;30219;50.588;9.504;2022-12-05T00:53:45;2.00;99.90
44513;DHT22;30219;50.588;9.504;2022-12-05T00:56:21;2.00;99.90
44513;DHT22;30219;50.588;9.504;2022-12-05T00:58:49;2.00;99.90
44513;DHT22;30219;50.588;9.504;2022-12-05T01:01:25;2.10;99.90
44513;DHT22;30219;50.588;9.504;2022-12-05T01:03:54;2.00;99.90
44513;DHT22;30219;50.588;9.504;2022-12-05T01:06:21;2.00;99.90
44513;DHT22;30219;50.588;9.504;2022-12-05T01:08:47;2.00;99.90
44513;DHT22;30219;50.588;9.504;2022-12-05T01:11:17;2.00;99.90
44513;DHT22;30219;50.588;9.504;2022-12-05T01:13:44;2.00;99.90
44513;DHT22;30219;50.588;9.504;2022-12-05T01:16:17;2.00;99.90
44513;DHT22;30219;50.588;9.504;2022-12-05T01:18:44;2.00;99.90
44513;DHT22;30219;50.588;9.504;2022-12-05T01:21:10;2.00;99.90
44513;DHT22;30219;50.588;9.504;2022-12-05T01:23:36;2.00;99.90
44513;DHT22;30219;50.588;9.504;2022-12-05T01:26:06;1.90;99.90
44513;DHT22;30219;50.588;9.504;2022-12-05T01:28:32;2.00;99.90
44513;DHT22;30219;50.588;9.504;2022-12-05T01:31:03;2.00;99.90
44513;DHT22;30219;50.588;9.504;2022-12-05T01:33:30;2.00;99.90
44513;DHT22;30219;50.588;9.504;2022-12-05T01:35:55;1.90;99.90
44513;DHT22;30219;50.588;9.504;2022-12-05T01:38:21;2.00;99.90
44513;DHT22;30219;50.588;9.504;2022-12-05T01:40:46;2.00;99.90
44513;DHT22;30219;50.588;9.504;2022-12-05T01:43:17;1.90;99.90
44513;DHT22;30219;50.588;9.504;2022-12-05T01:45:44;1.90;99.90
44513;DHT22;30219;50.588;9.504;2022-12-05T01:48:21;1.90;99.90
44513;DHT22;30219;50.588;9.504;2022-12-05T01:50:48;1.90;99.90
44513;DHT22;30219;50.588;9.504;2022-12-05T01:53:16;1.90;99.90
44513;DHT22;30219;50.588;9.504;2022-12-05T01:55:43;1.80;99.90
44513;DHT22;30219;50.588;9.504;2022-12-05T01:58:09;1.80;99.90
44513;DHT22;30219;50.588;9.504;2022-12-05T02:00:35;1.70;99.90
44513;DHT22;30219;50.588;9.504;2022-12-05T02:03:06;1.70;99.90
44513;DHT22;30219;50.588;9.504;2022-12-05T02:05:34;1.70;99.90
44513;DHT22;30219;50.588;9.504;2022-12-05T02:08:03;1.70;99.90
44513;DHT22;30219;50.588;9.504;2022-12-05T02:10:35;1.70;99.90
44513;DHT22;30219;50.588;9.504;2022-12-05T02:13:26;1.70;99.90
44513;DHT22;30219;50.588;9.504;2022-12-05T02:18:47;1.70;99.90
44513;DHT22;30219;50.588;9.504;2022-12-05T02:27:05;1.60;99.90
44513;DHT22;30219;50.588;9.504;2022-12-05T02:34:51;1.50;99.90
44513;DHT22;30219;50.588;9.504;2022-12-05T02:40:19;1.50;99.90
44513;DHT22;30219;50.588;9.504;2022-12-05T02:43:14;1.60;99.90
44513;DHT22;30219;50.588;9.504;2022-12-05T02:45:43;1.50;99.90
44513;DHT22;30219;50.588;9.504;2022-12-05T02:48:10;1.50;99.90
44513;DHT22;30219;50.588;9.504;2022-12-05T02:50:39;1.40;99.90
44513;DHT22;30219;50.588;9.504;2022-12-05T02:53:10;1.40;99.90
44513;DHT22;30219;50.588;9.504;2022-12-05T02:55:38;1.40;99.90
44513;DHT22;30219;50.588;9.504;2022-12-05T02:58:10;1.50;99.90
44513;DHT22;30219;50.588;9.504;2022-12-05T03:00:38;1.50;99.90
44513;DHT22;30219;50.588;9.504;2022-12-05T03:03:13;1.60;99.90
44513;DHT22;30219;50.588;9.504;2022-12-05T03:05:45;1.60;99.90
44513;DHT22;30219;50.588;9.504;2022-12-05T03:08:17;1.50;99.90
44513;DHT22;30219;50.588;9.504;2022-12-05T03:10:46;1.60;99.90
44513;DHT22;30219;50.588;9.504;2022-12-05T03:13:19;1.50;99.90
44513;DHT22;30219;50.588;9.504;2022-12-05T03:15:53;1.50;99.90
44513;DHT22;30219;50.588;9.504;2022-12-05T03:18:24;1.50;99.90
44513;DHT22;30219;50.588;9.504;2022-12-05T03:21:04;1.50;99.90
44513;DHT22;30219;50.588;9.504;2022-12-05T03:23:36;1.60;99.90
44513;DHT22;30219;50.588;9.504;2022-12-05T03:26:15;1.50;99.90
44513;DHT22;30219;50.588;9.504;2022-12-05T03:31:47;1.50;99.90
44513;DHT22;30219;50.588;9.504;2022-12-05T03:34:21;1.50;99.90
44513;DHT22;30219;50.588;9.504;2022-12-05T03:36:51;1.40;99.90
44513;DHT22;30219;50.588;9.504;2022-12-05T03:39:26;1.50;99.90
44513;DHT22;30219;50.588;9.504;2022-12-05T03:42:16;1.50;99.90
44513;DHT22;30219;50.588;9.504;2022-12-05T03:44:56;1.50;99.90
44513;DHT22;30219;50.588;9.504;2022-12-05T03:50:04;1.50;99.90
44513;DHT22;30219;50.588;9.504;2022-12-05T03:52:36;1.60;99.90
44513;DHT22;30219;50.588;9.504;2022-12-05T03:55:07;1.50;99.90
44513;DHT22;30219;50.588;9.504;2022-12-05T03:57:41;1.60;99.90
44513;DHT22;30219;50.588;9.504;2022-12-05T04:00:17;1.60;99.90
44513;DHT22;30219;50.588;9.504;2022-12-05T04:02:57;1.50;99.90
44513;DHT22;30219;50.588;9.504;2022-12-05T04:08:03;1.50;99.90
44513;DHT22;30219;50.588;9.504;2022-12-05T04:10:32;1.60;99.90
44513;DHT22;30219;50.588;9.504;2022-12-05T04:13:21;1.60;99.90
44513;DHT22;30219;50.588;9.504;2022-12-05T04:15:54;1.60;99.90
44513;DHT22;30219;50.588;9.504;2022-12-05T04:18:43;1.50;99.90
44513;DHT22;30219;50.588;9.504;2022-12-05T04:21:10;1.40;99.90
44513;DHT22;30219;50.588;9.504;2022-12-05T04:23:55;1.30;99.90
44513;DHT22;30219;50.588;9.504;2022-12-05T04:26:45;1.40;99.90
44513;DHT22;30219;50.588;9.504;2022-12-05T04:29:22;1.40;99.90
44513;DHT22;30219;50.588;9.504;2022-12-05T04:31:52;1.40;99.90
44513;DHT22;30219;50.588;9.504;2022-12-05T04:34:23;1.40;99.90
44513;DHT22;30219;50.588;9.504;2022-12-05T04:37:01;1.40;99.90
44513;DHT22;30219;50.588;9.504;2022-12-05T04:39:50;1.50;99.90
44513;DHT22;30219;50.588;9.504;2022-12-05T04:42:21;1.50;99.90
44513;DHT22;30219;50.588;9.504;2022-12-05T04:44:54;1.50;99.90
44513;DHT22;30219;50.588;9.504;2022-12-05T04:47:24;1.50;99.90
44513;DHT22;30219;50.588;9.504;2022-12-05T04:49:52;1.50;99.90
44513;DHT22;30219;50.588;9.504;2022-12-05T04:52:20;1.50;99.90
44513;DHT22;30219;50.588;9.504;2022-12-05T04:54:50;1.50;99.90
44513;DHT22;30219;50.588;9.504;2022-12-05T04:57:23;1.50;99.90
44513;DHT22;30219;50.588;9.504;2022-12-05T04:59:49;1.60;99.90
44513;DHT22;30219;50.588;9.504;2022-12-05T05:02:18;1.60;99.90
44513;DHT22;30219;50.588;9.504;2022-12-05T05:04:51;1.60;99.90
44513;DHT22;30219;50.588;9.504;2022-12-05T05:07:18;1.60;99.90
44513;DHT22;30219;50.588;9.504;2022-12-05T05:09:44;1.60;99.90
44513;DHT22;30219;50.588;9.504;2022-12-05T05:12:10;1.60;99.90
44513;DHT22;30219;50.588;9.504;2022-12-05T05:14:36;1.60;99.90
44513;DHT22;30219;50.588;9.504;2022-12-05T05:17:02;1.50;99.90
44513;DHT22;30219;50.588;9.504;2022-12-05T05:19:28;1.50;99.90
44513;DHT22;30219;50.588;9.504;2022-12-05T05:21:53;1.50;99.90
44513;DHT22;30219;50.588;9.504;2022-12-05T05:24:19;1.60;99.90
44513;DHT22;30219;50.588;9.504;2022-12-05T05:26:50;1.60;99.90
44513;DHT22;30219;50.588;9.504;2022-12-05T05:29:16;1.60;99.90
44513;DHT22;30219;50.588;9.504;2022-12-05T05:31:42;1.60;99.90
44513;DHT22;30219;50.588;9.504;2022-12-05T05:34:09;1.60;99.90
44513;DHT22;30219;50.588;9.504;2022-12-05T05:36:35;1.60;99.90
44513;DHT22;30219;50.588;9.504;2022-12-05T05:39:01;1.60;99.90
44513;DHT22;30219;50.588;9.504;2022-12-05T05:41:31;1.60;99.90
44513;DHT22;30219;50.588;9.504;2022-12-05T05:43:58;1.60;99.90
44513;DHT22;30219;50.588;9.504;2022-12-05T05:46:26;1.60;99.90
44513;DHT22;30219;50.588;9.504;2022-12-05T05:48:52;1.60;99.90
44513;DHT22;30219;50.588;9.504;2022-12-05T05:51:19;1.60;99.90
44513;DHT22;30219;50.588;9.504;2022-12-05T05:53:45;1.60;99.90
44513;DHT22;30219;50.588;9.504;2022-12-05T05:56:14;1.60;99.90
44513;DHT22;30219;50.588;9.504;2022-12-05T05:58:40;1.60;99.90
44513;DHT22;30219;50.588;9.504;2022-12-05T06:01:11;1.70;99.90
44513;DHT22;30219;50.588;9.504;2022-12-05T06:03:37;1.60;99.90
44513;DHT22;30219;50.588;9.504;2022-12-05T06:06:07;1.60;99.90
44513;DHT22;30219;50.588;9.504;2022-12-05T06:08:34;1.60;99.90
44513;DHT22;30219;50.588;9.504;2022-12-05T06:11:08;1.70;99.90
44513;DHT22;30219;50.588;9.504;2022-12-05T06:13:34;1.70;99.90
44513;DHT22;30219;50.588;9.504;2022-12-05T06:16:00;1.70;99.90
44513;DHT22;30219;50.588;9.504;2022-12-05T06:18:26;1.60;99.90
44513;DHT22;30219;50.588;9.504;2022-12-05T06:20:56;1.60;99.90
44513;DHT22;30219;50.588;9.504;2022-12-05T06:23:23;1.70;99.90
44513;DHT22;30219;50.588;9.504;2022-12-05T06:25:50;1.70;99.90
44513;DHT22;30219;50.588;9.504;2022-12-05T06:28:17;1.60;99.90
44513;DHT22;30219;50.588;9.504;2022-12-05T06:30:43;1.50;99.90
44513;DHT22;30219;50.588;9.504;2022-12-05T06:33:10;1.50;99.90
44513;DHT22;30219;50.588;9.504;2022-12-05T06:35:35;1.50;99.90
44513;DHT22;30219;50.588;9.504;2022-12-05T06:38:01;1.50;99.90
44513;DHT22;30219;50.588;9.504;2022-12-05T06:40:27;1.50;99.90
44513;DHT22;30219;50.588;9.504;2022-12-05T06:42:52;1.50;99.90
44513;DHT22;30219;50.588;9.504;2022-12-05T06:45:18;1.50;99.90
44513;DHT22;30219;50.588;9.504;2022-12-05T06:47:43;1.50;99.90
44513;DHT22;30219;50.588;9.504;2022-12-05T06:50:09;1.50;99.90
44513;DHT22;30219;50.588;9.504;2022-12-05T06:52:35;1.50;99.90
44513;DHT22;30219;50.588;9.504;2022-12-05T06:55:00;1.50;99.90
44513;DHT22;30219;50.588;9.504;2022-12-05T06:57:29;1.60;99.90
44513;DHT22;30219;50.588;9.504;2022-12-05T06:59:55;1.60;99.90
44513;DHT22;30219;50.588;9.504;2022-12-05T07:02:41;1.60;99.90
44513;DHT22;30219;50.588;9.504;2022-12-05T07:05:08;1.60;99.90
44513;DHT22;30219;50.588;9.504;2022-12-05T07:07:34;1.60;99.90
44513;DHT22;30219;50.588;9.504;2022-12-05T07:10:00;1.60;99.90
44513;DHT22;30219;50.588;9.504;2022-12-05T07:12:25;1.60;99.90
44513;DHT22;30219;50.588;9.504;2022-12-05T07:14:51;1.60;99.90
44513;DHT22;30219;50.588;9.504;2022-12-05T07:17:20;1.60;99.90
44513;DHT22;30219;50.588;9.504;2022-12-05T07:19:47;1.60;99.90
44513;DHT22;30219;50.588;9.504;2022-12-05T07:22:13;1.60;99.90
44513;DHT22;30219;50.588;9.504;2022-12-05T07:24:39;1.70;99.90
44513;DHT22;30219;50.588;9.504;2022-12-05T07:27:04;1.70;99.90
44513;DHT22;30219;50.588;9.504;2022-12-05T07:29:30;1.70;99.90
44513;DHT22;30219;50.588;9.504;2022-12-05T07:31:56;1.70;99.90
44513;DHT22;30219;50.588;9.504;2022-12-05T07:34:21;1.80;99.90
44513;DHT22;30219;50.588;9.504;2022-12-05T07:36:47;1.80;99.90
44513;DHT22;30219;50.588;9.504;2022-12-05T07:39:12;1.80;99.90
44513;DHT22;30219;50.588;9.504;2022-12-05T07:41:38;1.80;99.90
44513;DHT22;30219;50.588;9.504;2022-12-05T07:44:04;1.80;99.90
44513;DHT22;30219;50.588;9.504;2022-12-05T07:46:29;1.80;99.90
44513;DHT22;30219;50.588;9.504;2022-12-05T07:48:55;1.70;99.90
44513;DHT22;30219;50.588;9.504;2022-12-05T07:51:21;1.80;99.90
44513;DHT22;30219;50.588;9.504;2022-12-05T07:53:47;1.80;99.90
44513;DHT22;30219;50.588;9.504;2022-12-05T07:56:14;1.80;99.90
44513;DHT22;30219;50.588;9.504;2022-12-05T07:58:42;1.80;99.90
44513;DHT22;30219;50.588;9.504;2022-12-05T08:01:19;1.80;99.90
44513;DHT22;30219;50.588;9.504;2022-12-05T08:03:46;1.80;99.90
44513;DHT22;30219;50.588;9.504;2022-12-05T08:06:20;1.70;99.90
44513;DHT22;30219;50.588;9.504;2022-12-05T08:08:46;1.70;99.90
44513;DHT22;30219;50.588;9.504;2022-12-05T08:11:20;1.80;99.90
44513;DHT22;30219;50.588;9.504;2022-12-05T08:13:46;1.80;99.90
44513;DHT22;30219;50.588;9.504;2022-12-05T08:16:18;1.80;99.90
44513;DHT22;30219;50.588;9.504;2022-12-05T08:18:43;2.00;99.90
44513;DHT22;30219;50.588;9.504;2022-12-05T08:21:12;1.90;99.90
44513;DHT22;30219;50.588;9.504;2022-12-05T08:23:39;1.90;99.90
44513;DHT22;30219;50.588;9.504;2022-12-05T08:28:38;1.80;99.90
44513;DHT22;30219;50.588;9.504;2022-12-05T08:31:09;1.90;99.90
44513;DHT22;30219;50.588;9.504;2022-12-05T08:33:36;1.90;99.90
44513;DHT22;30219;50.588;9.504;2022-12-05T08:36:04;1.90;99.90
44513;DHT22;30219;50.588;9.504;2022-12-05T08:38:30;2.00;99.90
44513;DHT22;30219;50.588;9.504;2022-12-05T08:41:00;2.00;99.90
44513;DHT22;30219;50.588;9.504;2022-12-05T08:43:26;2.00;99.90
44513;DHT22;30219;50.588;9.504;2022-12-05T08:45:52;2.00;99.90
44513;DHT22;30219;50.588;9.504;2022-12-05T08:48:18;2.00;99.90
44513;DHT22;30219;50.588;9.504;2022-12-05T08:50:43;2.00;99.90
44513;DHT22;30219;50.588;9.504;2022-12-05T08:53:09;2.00;99.90
44513;DHT22;30219;50.588;9.504;2022-12-05T08:55:35;2.10;99.90
44513;DHT22;30219;50.588;9.504;2022-12-05T08:58:01;2.10;99.90
44513;DHT22;30219;50.588;9.504;2022-12-05T09:00:27;2.10;99.90
44513;DHT22;30219;50.588;9.504;2022-12-05T09:02:52;2.20;99.90
44513;DHT22;30219;50.588;9.504;2022-12-05T09:05:18;2.20;99.90
44513;DHT22;30219;50.588;9.504;2022-12-05T09:07:44;2.30;99.90
44513;DHT22;30219;50.588;9.504;2022-12-05T09:10:10;2.30;99.90
44513;DHT22;30219;50.588;9.504;2022-12-05T09:12:37;2.30;99.90
44513;DHT22;30219;50.588;9.504;2022-12-05T09:15:04;2.40;99.90
44513;DHT22;30219;50.588;9.504;2022-12-05T09:17:30;2.50;99.90
44513;DHT22;30219;50.588;9.504;2022-12-05T09:19:56;2.50;99.90
44513;DHT22;30219;50.588;9.504;2022-12-05T09:22:21;2.50;99.90
44513;DHT22;30219;50.588;9.504;2022-12-05T09:24:47;2.60;99.90
44513;DHT22;30219;50.588;9.504;2022-12-05T09:27:13;2.60;99.90
44513;DHT22;30219;50.588;9.504;2022-12-05T09:29:39;2.60;99.90
44513;DHT22;30219;50.588;9.504;2022-12-05T09:32:04;2.50;99.90
44513;DHT22;30219;50.588;9.504;2022-12-05T09:34:30;2.50;99.90
44513;DHT22;30219;50.588;9.504;2022-12-05T09:36:56;2.50;99.90
44513;DHT22;30219;50.588;9.504;2022-12-05T09:39:22;2.50;99.90
44513;DHT22;30219;50.588;9.504;2022-12-05T09:44:55;2.30;99.90
44513;DHT22;30219;50.588;9.504;2022-12-05T09:48:09;2.40;99.90
44513;DHT22;30219;50.588;9.504;2022-12-05T09:50:21;2.40;99.90
44513;DHT22;30219;50.588;9.504;2022-12-05T09:53:04;2.40;99.90
44513;DHT22;30219;50.588;9.504;2022-12-05T09:55:51;2.40;99.90
44513;DHT22;30219;50.588;9.504;2022-12-05T09:58:39;2.40;99.90
44513;DHT22;30219;50.588;9.504;2022-12-05T10:06:57;2.50;99.90
44513;DHT22;30219;50.588;9.504;2022-12-05T10:17:43;2.40;99.90
44513;DHT22;30219;50.588;9.504;2022-12-05T10:20:45;2.30;99.90
44513;DHT22;30219;50.588;9.504;2022-12-05T10:23:19;2.30;99.90
44513;DHT22;30219;50.588;9.504;2022-12-05T10:25:50;2.30;99.90
44513;DHT22;30219;50.588;9.504;2022-12-05T10:28:44;2.30;99.90
44513;DHT22;30219;50.588;9.504;2022-12-05T10:31:13;2.40;99.90
44513;DHT22;30219;50.588;9.504;2022-12-05T10:33:45;2.50;99.90
44513;DHT22;30219;50.588;9.504;2022-12-05T10:36:13;2.50;99.90
44513;DHT22;30219;50.588;9.504;2022-12-05T10:38:41;2.60;99.90
44513;DHT22;30219;50.588;9.504;2022-12-05T10:41:10;2.60;99.90
44513;DHT22;30219;50.588;9.504;2022-12-05T10:43:42;2.60;99.90
44513;DHT22;30219;50.588;9.504;2022-12-05T10:46:10;2.70;99.90
44513;DHT22;30219;50.588;9.504;2022-12-05T10:48:38;2.70;99.90
44513;DHT22;30219;50.588;9.504;2022-12-05T10:51:05;2.80;99.90
44513;DHT22;30219;50.588;9.504;2022-12-05T10:53:46;2.80;99.90
44513;DHT22;30219;50.588;9.504;2022-12-05T10:59:01;2.90;99.90
44513;DHT22;30219;50.588;9.504;2022-12-05T11:01:27;2.90;99.90
44513;DHT22;30219;50.588;9.504;2022-12-05T11:03:58;3.00;99.90
44513;DHT22;30219;50.588;9.504;2022-12-05T11:06:26;3.00;99.90
44513;DHT22;30219;50.588;9.504;2022-12-05T11:08:57;3.00;99.90
44513;DHT22;30219;50.588;9.504;2022-12-05T11:11:29;3.00;99.90
44513;DHT22;30219;50.588;9.504;2022-12-05T11:14:06;2.90;99.90
44513;DHT22;30219;50.588;9.504;2022-12-05T11:16:38;2.90;99.90
44513;DHT22;30219;50.588;9.504;2022-12-05T11:21:50;2.90;99.90
44513;DHT22;30219;50.588;9.504;2022-12-05T11:24:34;2.90;99.90
44513;DHT22;30219;50.588;9.504;2022-12-05T11:27:19;2.80;99.90
44513;DHT22;30219;50.588;9.504;2022-12-05T11:32:26;2.80;99.90
44513;DHT22;30219;50.588;9.504;2022-12-05T11:37:52;2.90;99.90
44513;DHT22;30219;50.588;9.504;2022-12-05T11:48:35;2.90;99.90
44513;DHT22;30219;50.588;9.504;2022-12-05T11:51:22;2.90;99.90
44513;DHT22;30219;50.588;9.504;2022-12-05T11:57:27;2.80;99.90
44513;DHT22;30219;50.588;9.504;2022-12-05T12:02:42;3.00;99.90
44513;DHT22;30219;50.588;9.504;2022-12-05T12:13:27;2.80;99.90
44513;DHT22;30219;50.588;9.504;2022-12-05T12:37:26;3.00;99.90
44513;DHT22;30219;50.588;9.504;2022-12-05T12:40:00;3.10;99.90
44513;DHT22;30219;50.588;9.504;2022-12-05T12:42:34;3.20;99.90
44513;DHT22;30219;50.588;9.504;2022-12-05T12:45:20;3.10;99.90
44513;DHT22;30219;50.588;9.504;2022-12-05T12:50:32;3.20;99.90
44513;DHT22;30219;50.588;9.504;2022-12-05T12:53:17;3.20;99.90
44513;DHT22;30219;50.588;9.504;2022-12-05T12:55:52;3.20;99.90
44513;DHT22;30219;50.588;9.504;2022-12-05T13:01:26;3.00;99.90
44513;DHT22;30219;50.588;9.504;2022-12-05T13:04:15;3.00;99.90
44513;DHT22;30219;50.588;9.504;2022-12-05T13:09:39;3.10;99.90
44513;DHT22;30219;50.588;9.504;2022-12-05T13:12:21;3.20;99.90
44513;DHT22;30219;50.588;9.504;2022-12-05T13:14:52;3.10;99.90
44513;DHT22;30219;50.588;9.504;2022-12-05T13:17:22;3.10;99.90
44513;DHT22;30219;50.588;9.504;2022-12-05T13:19:50;3.10;99.90
44513;DHT22;30219;50.588;9.504;2022-12-05T13:22:17;3.10;99.90
44513;DHT22;30219;50.588;9.504;2022-12-05T13:24:44;3.10;99.90
44513;DHT22;30219;50.588;9.504;2022-12-05T13:27:24;3.10;99.90
44513;DHT22;30219;50.588;9.504;2022-12-05T13:29:57;3.20;99.90
44513;DHT22;30219;50.588;9.504;2022-12-05T13:32:32;3.20;99.90
44513;DHT22;30219;50.588;9.504;2022-12-05T13:35:14;3.30;99.90
44513;DHT22;30219;50.588;9.504;2022-12-05T13:38:02;3.30;99.90
44513;DHT22;30219;50.588;9.504;2022-12-05T13:40:51;3.20;99.90
44513;DHT22;30219;50.588;9.504;2022-12-05T13:43:49;3.20;99.90
44513;DHT22;30219;50.588;9.504;2022-12-05T13:46:38;3.20;99.90
44513;DHT22;30219;50.588;9.504;2022-12-05T13:49:13;3.20;99.90
44513;DHT22;30219;50.588;9.504;2022-12-05T13:51:42;3.20;99.90
44513;DHT22;30219;50.588;9.504;2022-12-05T13:54:12;3.10;99.90
44513;DHT22;30219;50.588;9.504;2022-12-05T13:56:58;3.20;99.90
44513;DHT22;30219;50.588;9.504;2022-12-05T14:07:49;3.30;99.90
44513;DHT22;30219;50.588;9.504;2022-12-05T14:18:54;3.50;99.90
44513;DHT22;30219;50.588;9.504;2022-12-05T14:21:39;3.50;99.90
44513;DHT22;30219;50.588;9.504;2022-12-05T14:24:20;3.60;99.90
44513;DHT22;30219;50.588;9.504;2022-12-05T14:30:01;3.50;99.90
44513;DHT22;30219;50.588;9.504;2022-12-05T14:32:33;3.50;99.90
44513;DHT22;30219;50.588;9.504;2022-12-05T14:37:52;3.60;99.90
44513;DHT22;30219;50.588;9.504;2022-12-05T14:40:31;3.60;99.90
44513;DHT22;30219;50.588;9.504;2022-12-05T14:43:16;3.70;99.90
44513;DHT22;30219;50.588;9.504;2022-12-05T14:50:53;3.50;99.90
44513;DHT22;30219;50.588;9.504;2022-12-05T14:53:30;3.50;99.90
44513;DHT22;30219;50.588;9.504;2022-12-05T15:01:45;3.30;99.90
44513;DHT22;30219;50.588;9.504;2022-12-05T15:07:12;3.20;99.90
44513;DHT22;30219;50.588;9.504;2022-12-05T15:09:54;3.30;99.90
44513;DHT22;30219;50.588;9.504;2022-12-05T15:18:27;3.20;99.90
44513;DHT22;30219;50.588;9.504;2022-12-05T15:21:12;3.20;99.90
44513;DHT22;30219;50.588;9.504;2022-12-05T15:23:44;3.30;99.90
44513;DHT22;30219;50.588;9.504;2022-12-05T15:26:28;3.30;99.90
44513;DHT22;30219;50.588;9.504;2022-12-05T15:29:07;3.30;99.90
44513;DHT22;30219;50.588;9.504;2022-12-05T15:31:55;3.30;99.90
44513;DHT22;30219;50.588;9.504;2022-12-05T15:37:00;3.30;99.90
44513;DHT22;30219;50.588;9.504;2022-12-05T15:39:28;3.40;99.90
44513;DHT22;30219;50.588;9.504;2022-12-05T15:41:55;3.50;99.90
44513;DHT22;30219;50.588;9.504;2022-12-05T15:44:21;3.50;99.90
44513;DHT22;30219;50.588;9.504;2022-12-05T15:46:51;3.50;99.90
44513;DHT22;30219;50.588;9.504;2022-12-05T15:49:26;3.50;99.90
44513;DHT22;30219;50.588;9.504;2022-12-05T15:52:03;3.50;99.90
44513;DHT22;30219;50.588;9.504;2022-12-05T15:54:35;3.50;99.90
44513;DHT22;30219;50.588;9.504;2022-12-05T15:57:07;3.40;99.90
44513;DHT22;30219;50.588;9.504;2022-12-05T15:59:54;3.40;99.90
44513;DHT22;30219;50.588;9.504;2022-12-05T16:02:38;3.40;99.90
44513;DHT22;30219;50.588;9.504;2022-12-05T16:07:49;3.50;99.90
44513;DHT22;30219;50.588;9.504;2022-12-05T16:10:16;3.50;99.90
44513;DHT22;30219;50.588;9.504;2022-12-05T16:12:42;3.40;99.90
44513;DHT22;30219;50.588;9.504;2022-12-05T16:15:16;3.50;99.90
44513;DHT22;30219;50.588;9.504;2022-12-05T16:17:46;3.40;99.90
44513;DHT22;30219;50.588;9.504;2022-12-05T16:22:46;3.40;99.90
44513;DHT22;30219;50.588;9.504;2022-12-05T16:25:21;3.40;99.90
44513;DHT22;30219;50.588;9.504;2022-12-05T16:30:34;3.30;99.90
44513;DHT22;30219;50.588;9.504;2022-12-05T16:33:06;3.40;99.90
44513;DHT22;30219;50.588;9.504;2022-12-05T16:35:37;3.40;99.90
44513;DHT22;30219;50.588;9.504;2022-12-05T16:48:38;3.40;99.90
44513;DHT22;30219;50.588;9.504;2022-12-05T16:53:43;3.20;99.90
44513;DHT22;30219;50.588;9.504;2022-12-05T16:56:15;3.20;99.90
44513;DHT22;30219;50.588;9.504;2022-12-05T16:58:41;3.20;99.90
44513;DHT22;30219;50.588;9.504;2022-12-05T17:01:14;3.20;99.90
44513;DHT22;30219;50.588;9.504;2022-12-05T17:03:40;3.20;99.90
44513;DHT22;30219;50.588;9.504;2022-12-05T17:06:06;3.30;99.90
44513;DHT22;30219;50.588;9.504;2022-12-05T17:08:31;3.20;99.90
44513;DHT22;30219;50.588;9.504;2022-12-05T17:10:57;3.20;99.90
44513;DHT22;30219;50.588;9.504;2022-12-05T17:13:23;3.20;99.90
44513;DHT22;30219;50.588;9.504;2022-12-05T17:15:49;3.10;99.90
44513;DHT22;30219;50.588;9.504;2022-12-05T17:18:17;3.20;99.90
44513;DHT22;30219;50.588;9.504;2022-12-05T17:20:50;3.20;99.90
44513;DHT22;30219;50.588;9.504;2022-12-05T17:23:16;3.30;99.90
44513;DHT22;30219;50.588;9.504;2022-12-05T17:25:48;3.40;99.90
44513;DHT22;30219;50.588;9.504;2022-12-05T17:28:15;3.40;99.90
44513;DHT22;30219;50.588;9.504;2022-12-05T17:30:40;3.30;99.90
44513;DHT22;30219;50.588;9.504;2022-12-05T17:33:09;3.30;99.90
44513;DHT22;30219;50.588;9.504;2022-12-05T17:35:35;3.40;99.90
44513;DHT22;30219;50.588;9.504;2022-12-05T17:38:02;3.30;99.90
44513;DHT22;30219;50.588;9.504;2022-12-05T17:40:29;3.20;99.90
44513;DHT22;30219;50.588;9.504;2022-12-05T17:42:54;3.20;99.90
44513;DHT22;30219;50.588;9.504;2022-12-05T17:45:20;3.20;99.90
44513;DHT22;30219;50.588;9.504;2022-12-05T17:47:46;3.30;99.90
44513;DHT22;30219;50.588;9.504;2022-12-05T17:50:13;3.10;99.90
44513;DHT22;30219;50.588;9.504;2022-12-05T17:52:39;3.10;99.90
44513;DHT22;30219;50.588;9.504;2022-12-05T17:55:17;3.10;99.90
44513;DHT22;30219;50.588;9.504;2022-12-05T17:57:43;3.10;99.90
44513;DHT22;30219;50.588;9.504;2022-12-05T18:00:10;3.10;99.90
44513;DHT22;30219;50.588;9.504;2022-12-05T18:02:36;3.10;99.90
44513;DHT22;30219;50.588;9.504;2022-12-05T18:05:01;3.30;99.90
44513;DHT22;30219;50.588;9.504;2022-12-05T18:07:27;3.30;99.90
44513;DHT22;30219;50.588;9.504;2022-12-05T18:09:52;3.30;99.90
44513;DHT22;30219;50.588;9.504;2022-12-05T18:12:18;3.20;99.90
44513;DHT22;30219;50.588;9.504;2022-12-05T18:14:43;3.30;99.90
44513;DHT22;30219;50.588;9.504;2022-12-05T18:17:09;3.30;99.90
44513;DHT22;30219;50.588;9.504;2022-12-05T18:19:34;3.30;99.90
44513;DHT22;30219;50.588;9.504;2022-12-05T18:22:00;3.30;99.90
44513;DHT22;30219;50.588;9.504;2022-12-05T18:24:25;3.30;99.90
44513;DHT22;30219;50.588;9.504;2022-12-05T18:26:51;3.30;99.90
44513;DHT22;30219;50.588;9.504;2022-12-05T18:29:16;3.40;99.90
44513;DHT22;30219;50.588;9.504;2022-12-05T18:31:42;3.40;99.90
44513;DHT22;30219;50.588;9.504;2022-12-05T18:34:08;3.30;99.90
44513;DHT22;30219;50.588;9.504;2022-12-05T18:36:33;3.40;99.90
44513;DHT22;30219;50.588;9.504;2022-12-05T18:38:59;3.30;99.90
44513;DHT22;30219;50.588;9.504;2022-12-05T18:41:25;3.30;99.90
44513;DHT22;30219;50.588;9.504;2022-12-05T18:43:52;3.30;99.90
44513;DHT22;30219;50.588;9.504;2022-12-05T18:46:18;3.40;99.90
44513;DHT22;30219;50.588;9.504;2022-12-05T18:48:43;3.30;99.90
44513;DHT22;30219;50.588;9.504;2022-12-05T18:51:17;3.30;99.90
44513;DHT22;30219;50.588;9.504;2022-12-05T18:53:43;3.40;99.90
44513;DHT22;30219;50.588;9.504;2022-12-05T18:56:17;3.40;99.90
44513;DHT22;30219;50.588;9.504;2022-12-05T18:58:42;3.50;99.90
44513;DHT22;30219;50.588;9.504;2022-12-05T19:01:11;3.40;99.90